createdAt,value
2023-04-27T00:00:14.641Z,100417.78
2023-04-27T00:01:46.719Z,100410.81
2023-04-27T00:03:19.030Z,100411.66
2023-04-27T00:04:51.867Z,100409.09
2023-04-27T00:06:23.939Z,100406.47
2023-04-27T00:07:56.091Z,100411.78
2023-04-27T00:09:27.892Z,100411.78
2023-04-27T00:10:59.868Z,100402.97
2023-04-27T00:12:31.694Z,100410.03
2023-04-27T00:14:03.902Z,100403.88
2023-04-27T00:15:35.722Z,100399.41
2023-04-27T00:17:07.503Z,100402.06
2023-04-27T00:18:39.322Z,100403.88
2023-04-27T00:20:12.408Z,100401.16
2023-04-27T00:21:44.206Z,100400.31
2023-04-27T00:23:16.236Z,100401.22
2023-04-27T00:24:48.215Z,100396.81
2023-04-27T00:26:20.587Z,100404.72
2023-04-27T00:27:55.240Z,100410.03
2023-04-27T00:29:27.449Z,100404.75
2023-04-27T00:30:59.240Z,100415.34
2023-04-27T00:32:32.686Z,100401.34
2023-04-27T00:34:10.052Z,100406.63
2023-04-27T00:35:41.844Z,100409.28
2023-04-27T00:37:13.708Z,100406.69
2023-04-27T00:38:45.628Z,100402.34
2023-04-27T00:40:17.471Z,100408.59
2023-04-27T00:41:49.294Z,100406.81
2023-04-27T00:43:21.116Z,100405.13
2023-04-27T00:44:53.160Z,100406.91
2023-04-27T00:46:25.111Z,100405.22
2023-04-27T00:47:57.177Z,100408.78
2023-04-27T00:49:29.291Z,100407.97
2023-04-27T00:51:01.124Z,100408.91
2023-04-27T00:52:33.225Z,100412.47
2023-04-27T00:54:06.216Z,100413.41
2023-04-27T00:55:38.021Z,100413.47
2023-04-27T00:57:09.892Z,100417.00
2023-04-27T00:58:41.703Z,100414.38
2023-04-27T01:00:14.028Z,100414.44
2023-04-27T01:01:50.118Z,100416.25
2023-04-27T01:03:24.271Z,100416.19
2023-04-27T01:04:56.603Z,100411.72
2023-04-27T01:06:29.942Z,100418.81
2023-04-27T01:08:01.830Z,100411.81
2023-04-27T01:09:33.593Z,100413.59
2023-04-27T01:11:05.447Z,100413.59
2023-04-27T01:12:37.649Z,100426.78
2023-04-27T01:14:10.632Z,100416.28
2023-04-27T01:15:42.461Z,100424.25
2023-04-27T01:17:14.802Z,100426.03
2023-04-27T01:18:47.258Z,100421.72
2023-04-27T01:20:20.190Z,100425.31
2023-04-27T01:21:52.230Z,100427.09
2023-04-27T01:23:24.226Z,100423.63
2023-04-27T01:24:56.075Z,100418.41
2023-04-27T01:26:28.526Z,100426.41
2023-04-27T01:28:00.501Z,100423.81
2023-04-27T01:29:32.518Z,100422.13
2023-04-27T01:31:04.356Z,100426.59
2023-04-27T01:32:38.945Z,100421.31
2023-04-27T01:34:10.921Z,100430.28
2023-04-27T01:35:42.741Z,100429.47
2023-04-27T01:37:15.950Z,100431.28
2023-04-27T01:38:48.417Z,100432.28
2023-04-27T01:40:20.230Z,100428.84
2023-04-27T01:41:52.513Z,100431.59
2023-04-27T01:43:24.295Z,100431.63
2023-04-27T01:44:56.186Z,100431.75
2023-04-27T01:46:28.040Z,100426.59
2023-04-27T01:48:00.015Z,100433.75
2023-04-27T01:49:31.891Z,100434.78
2023-04-27T01:51:04.049Z,100435.66
2023-04-27T01:52:35.895Z,100440.19
2023-04-27T01:54:07.804Z,100437.66
2023-04-27T01:55:41.353Z,100434.16
2023-04-27T01:57:14.492Z,100438.59
2023-04-27T01:58:46.457Z,100438.69
2023-04-27T02:00:19.172Z,100453.66
2023-04-27T02:01:53.935Z,100446.63
2023-04-27T02:03:26.484Z,100449.28
2023-04-27T02:04:58.344Z,100452.78
2023-04-27T02:06:31.647Z,100445.75
2023-04-27T02:08:03.580Z,100440.44
2023-04-27T02:09:35.410Z,100446.63
2023-04-27T02:11:07.274Z,100446.63
2023-04-27T02:12:39.078Z,100451.00
2023-04-27T02:14:12.783Z,100451.03
2023-04-27T02:18:43.440Z,100457.28
2023-04-27T02:20:15.431Z,100457.34
2023-04-27T02:21:47.190Z,100452.94
2023-04-27T02:23:19.025Z,100452.09
2023-04-27T02:24:50.832Z,100456.53
2023-04-27T02:26:29.309Z,100452.03
2023-04-27T02:28:02.157Z,100458.22
2023-04-27T02:29:34.498Z,100449.41
2023-04-27T02:31:08.537Z,100458.22
2023-04-27T02:32:41.433Z,100458.22
2023-04-27T02:34:13.344Z,100458.22
2023-04-27T02:35:45.150Z,100452.91
2023-04-27T02:37:17.639Z,100452.03
2023-04-27T02:38:49.531Z,100453.69
2023-04-27T02:40:21.569Z,100462.66
2023-04-27T02:41:53.380Z,100456.41
2023-04-27T02:43:25.265Z,100454.75
2023-04-27T02:44:57.081Z,100454.75
2023-04-27T02:46:28.897Z,100455.59
2023-04-27T02:48:00.714Z,100455.69
2023-04-27T02:49:32.602Z,100457.56
2023-04-27T02:51:05.479Z,100462.00
2023-04-27T02:52:37.325Z,100458.56
2023-04-27T02:54:09.662Z,100458.63
2023-04-27T02:55:47.794Z,100457.03
2023-04-27T02:57:19.693Z,100450.88
2023-04-27T02:58:51.641Z,100458.91
2023-04-27T03:00:24.084Z,100456.38
2023-04-27T03:01:55.885Z,100452.91
2023-04-27T03:03:27.844Z,100452.06
2023-04-27T03:04:59.729Z,100458.31
2023-04-27T03:06:31.640Z,100462.84
2023-04-27T03:08:03.531Z,100465.59
2023-04-27T03:09:35.356Z,100460.38
2023-04-27T03:11:07.443Z,100471.09
2023-04-27T03:12:41.123Z,100466.75
2023-04-27T03:14:13.645Z,100468.63
2023-04-27T03:15:45.942Z,100473.09
2023-04-27T03:17:17.750Z,100463.53
2023-04-27T03:18:52.787Z,100472.41
2023-04-27T03:20:24.639Z,100470.75
2023-04-27T03:21:58.729Z,100478.75
2023-04-27T03:23:30.555Z,100470.06
2023-04-27T03:25:03.603Z,100480.75
2023-04-27T03:26:35.695Z,100487.88
2023-04-27T03:28:09.148Z,100486.25
2023-04-27T03:29:41.034Z,100488.91
2023-04-27T03:31:14.977Z,100492.59
2023-04-27T03:32:47.878Z,100486.53
2023-04-27T03:34:21.211Z,100493.66
2023-04-27T03:35:57.649Z,100495.53
2023-04-27T03:37:30.050Z,100501.81
2023-04-27T03:39:02.220Z,100498.38
2023-04-27T03:40:34.434Z,100501.09
2023-04-27T03:42:06.358Z,100496.81
2023-04-27T03:43:38.186Z,100507.47
2023-04-27T03:45:12.323Z,100505.78
2023-04-27T03:46:44.439Z,100510.25
2023-04-27T03:48:17.439Z,100511.25
2023-04-27T03:49:50.645Z,100511.28
2023-04-27T03:51:22.574Z,100511.38
2023-04-27T03:52:54.383Z,100507.03
2023-04-27T03:54:26.198Z,100503.56
2023-04-27T03:55:58.016Z,100513.31
2023-04-27T03:57:31.893Z,100505.44
2023-04-27T03:59:04.922Z,100507.22
2023-04-27T04:00:39.474Z,100508.13
2023-04-27T04:02:11.903Z,100512.63
2023-04-27T04:03:44.280Z,100510.88
2023-04-27T04:05:17.225Z,100515.34
2023-04-27T04:06:49.147Z,100516.25
2023-04-27T04:08:21.112Z,100524.19
2023-04-27T04:09:53.008Z,100522.47
2023-04-27T04:11:24.911Z,100525.09
2023-04-27T04:13:00.048Z,100524.25
2023-04-27T04:14:32.532Z,100520.75
2023-04-27T04:16:07.270Z,100524.25
2023-04-27T04:17:39.620Z,100526.03
2023-04-27T04:19:12.686Z,100526.03
2023-04-27T04:20:44.682Z,100530.41
2023-04-27T04:22:16.520Z,100528.59
2023-04-27T04:23:48.886Z,100533.03
2023-04-27T04:25:21.119Z,100532.97
2023-04-27T04:26:52.939Z,100529.44
2023-04-27T04:28:25.505Z,100537.31
2023-04-27T04:30:00.401Z,100536.47
2023-04-27T04:31:33.809Z,100532.03
2023-04-27T04:33:05.836Z,100540.81
2023-04-27T04:34:37.667Z,100535.44
2023-04-27T04:36:11.139Z,100544.25
2023-04-27T04:37:43.635Z,100533.56
2023-04-27T04:39:15.707Z,100540.56
2023-04-27T04:40:48.247Z,100540.53
2023-04-27T04:42:20.887Z,100544.75
2023-04-27T04:43:52.958Z,100543.78
2023-04-27T04:45:24.826Z,100542.75
2023-04-27T04:46:57.807Z,100542.66
2023-04-27T04:48:31.468Z,100539.84
2023-04-27T04:50:04.221Z,100537.09
2023-04-27T04:51:41.905Z,100541.31
2023-04-27T04:53:13.896Z,100548.16
2023-04-27T04:54:46.294Z,100554.06
2023-04-27T04:56:18.100Z,100557.34
2023-04-27T04:57:49.994Z,100560.66
2023-04-27T04:59:22.057Z,100555.88
2023-04-27T05:00:53.873Z,100553.78
2023-04-27T05:02:25.990Z,100557.94
2023-04-27T05:03:58.073Z,100555.84
2023-04-27T05:05:30.032Z,100559.84
2023-04-27T05:07:01.832Z,100558.66
2023-04-27T05:08:33.679Z,100557.41
2023-04-27T05:10:05.947Z,100559.72
2023-04-27T05:11:37.776Z,100566.47
2023-04-27T05:13:09.554Z,100561.66
2023-04-27T05:14:41.661Z,100553.41
2023-04-27T05:16:13.683Z,100560.91
2023-04-27T05:17:45.544Z,100557.03
2023-04-27T05:19:21.013Z,100558.47
2023-04-27T05:20:52.778Z,100559.00
2023-04-27T05:22:24.594Z,100559.50
2023-04-27T05:23:56.414Z,100547.63
2023-04-27T05:25:35.096Z,100556.06
2023-04-27T05:27:07.240Z,100554.69
2023-04-27T05:28:39.090Z,100545.41
2023-04-27T05:30:11.506Z,100552.97
2023-04-27T05:31:43.567Z,100556.03
2023-04-27T05:33:15.734Z,100550.34
2023-04-27T05:34:49.430Z,100553.34
2023-04-27T05:36:21.771Z,100554.69
2023-04-27T05:37:53.594Z,100551.50
2023-04-27T05:39:25.419Z,100551.03
2023-04-27T05:40:58.136Z,100559.44
2023-04-27T05:42:29.920Z,100557.22
2023-04-27T05:44:01.762Z,100552.28
2023-04-27T05:45:33.693Z,100543.78
2023-04-27T05:47:05.562Z,100550.38
2023-04-27T05:48:37.692Z,100546.34
2023-04-27T05:50:09.912Z,100546.63
2023-04-27T05:51:41.935Z,100542.53
2023-04-27T05:53:13.733Z,100548.94
2023-04-27T05:54:49.796Z,100544.69
2023-04-27T05:56:22.664Z,100543.00
2023-04-27T05:58:06.989Z,100542.25
2023-04-27T05:59:39.264Z,100546.63
2023-04-27T06:01:11.165Z,100546.72
2023-04-27T06:02:43.253Z,100539.75
2023-04-27T06:04:15.463Z,100543.34
2023-04-27T06:05:47.494Z,100536.22
2023-04-27T06:07:19.290Z,100534.53
2023-04-27T06:08:51.079Z,100532.84
2023-04-27T06:10:23.085Z,100534.75
2023-04-27T06:11:54.885Z,100533.94
2023-04-27T06:13:27.187Z,100536.78
2023-04-27T06:14:59.061Z,100534.28
2023-04-27T06:16:31.166Z,100536.16
2023-04-27T06:18:03.277Z,100537.16
2023-04-27T06:19:35.141Z,100527.47
2023-04-27T06:21:07.366Z,100530.28
2023-04-27T06:22:39.746Z,100529.44
2023-04-27T06:24:11.586Z,100534.00
2023-04-27T06:25:44.488Z,100531.41
2023-04-27T06:27:16.300Z,100531.44
2023-04-27T06:28:48.139Z,100544.09
2023-04-27T06:30:20.174Z,100540.75
2023-04-27T06:31:52.051Z,100543.53
2023-04-27T06:33:23.881Z,100538.47
2023-04-27T06:34:55.935Z,100541.50
2023-04-27T06:36:28.388Z,100547.06
2023-04-27T06:38:01.027Z,100547.53
2023-04-27T06:39:33.123Z,100552.50
2023-04-27T06:41:05.151Z,100549.41
2023-04-27T06:42:37.407Z,100545.38
2023-04-27T06:44:09.293Z,100550.34
2023-04-27T06:45:41.070Z,100545.50
2023-04-27T06:47:13.386Z,100544.25
2023-04-27T06:48:45.434Z,100547.59
2023-04-27T06:50:17.316Z,100551.59
2023-04-27T06:51:49.663Z,100547.75
2023-04-27T06:53:21.871Z,100547.56
2023-04-27T06:54:54.597Z,100549.94
2023-04-27T06:56:26.414Z,100556.94
2023-04-27T06:57:58.205Z,100548.53
2023-04-27T06:59:30.090Z,100553.63
2023-04-27T07:01:02.780Z,100557.81
2023-04-27T07:02:34.696Z,100555.66
2023-04-27T07:04:07.183Z,100559.69
2023-04-27T07:05:39.126Z,100554.88
2023-04-27T07:07:11.007Z,100560.81
2023-04-27T07:08:43.415Z,100555.22
2023-04-27T07:10:15.274Z,100558.44
2023-04-27T07:11:47.103Z,100556.41
2023-04-27T07:13:18.906Z,100561.47
2023-04-27T07:14:51.235Z,100558.25
2023-04-27T07:16:23.535Z,100555.06
2023-04-27T07:17:55.505Z,100555.16
2023-04-27T07:19:27.433Z,100558.69
2023-04-27T07:20:59.236Z,100560.38
2023-04-27T07:22:31.159Z,100562.00
2023-04-27T07:24:04.309Z,100559.06
2023-04-27T07:25:36.115Z,100565.03
2023-04-27T07:27:08.391Z,100557.38
2023-04-27T07:28:40.410Z,100559.44
2023-04-27T07:30:14.489Z,100558.78
2023-04-27T07:31:46.547Z,100559.75
2023-04-27T07:33:18.512Z,100565.09
2023-04-27T07:34:54.140Z,100555.34
2023-04-27T07:36:27.708Z,100555.34
2023-04-27T07:38:01.884Z,100559.78
2023-04-27T07:39:34.042Z,100559.63
2023-04-27T07:41:06.596Z,100558.72
2023-04-27T07:42:39.967Z,100558.56
2023-04-27T07:44:12.535Z,100559.34
2023-04-27T07:45:45.878Z,100557.63
2023-04-27T07:47:20.638Z,100556.66
2023-04-27T07:48:52.530Z,100556.81
2023-04-27T07:50:25.990Z,100551.50
2023-04-27T07:51:57.968Z,100557.75
2023-04-27T07:53:29.800Z,100565.34
2023-04-27T07:55:02.201Z,100562.13
2023-04-27T07:56:34.228Z,100568.84
2023-04-27T07:58:06.107Z,100567.78
2023-04-27T07:59:38.572Z,100561.25
2023-04-27T08:01:10.420Z,100561.81
2023-04-27T08:02:42.772Z,100570.53
2023-04-27T08:04:16.333Z,100571.38
2023-04-27T08:05:48.745Z,100573.97
2023-04-27T08:07:21.321Z,100577.66
2023-04-27T08:08:53.590Z,100581.19
2023-04-27T08:10:25.464Z,100586.34
2023-04-27T08:11:58.138Z,100575.47
2023-04-27T08:13:30.113Z,100574.47
2023-04-27T08:15:01.985Z,100574.28
2023-04-27T08:16:33.814Z,100567.69
2023-04-27T08:18:05.788Z,100565.78
2023-04-27T08:19:37.875Z,100566.28
2023-04-27T08:21:09.687Z,100571.94
2023-04-27T08:22:42.113Z,100572.63
2023-04-27T08:24:13.911Z,100577.69
2023-04-27T08:25:46.006Z,100569.47
2023-04-27T08:27:17.846Z,100567.66
2023-04-27T08:28:50.169Z,100569.31
2023-04-27T08:30:22.082Z,100566.53
2023-04-27T08:31:56.293Z,100564.41
2023-04-27T08:33:28.630Z,100563.34
2023-04-27T08:35:00.708Z,100560.88
2023-04-27T08:36:32.716Z,100560.06
2023-04-27T08:38:04.557Z,100547.84
2023-04-27T08:39:36.408Z,100560.13
2023-04-27T08:42:56.351Z,100555.47
2023-04-27T08:44:28.176Z,100561.97
2023-04-27T08:46:00.018Z,100552.78
2023-04-27T08:47:41.810Z,100560.63
2023-04-27T08:49:16.856Z,100559.28
2023-04-27T08:50:51.099Z,100551.63
2023-04-27T08:52:22.912Z,100559.50
2023-04-27T08:53:57.501Z,100545.72
2023-04-27T08:55:29.459Z,100547.44
2023-04-27T08:57:01.319Z,100555.13
2023-04-27T08:58:37.501Z,100553.59
2023-04-27T09:00:13.506Z,100553.47
2023-04-27T09:01:49.724Z,100555.88
2023-04-27T09:03:25.874Z,100552.44
2023-04-27T09:04:58.037Z,100563.66
2023-04-27T09:06:33.586Z,100559.56
2023-04-27T09:08:08.248Z,100551.69
2023-04-27T09:09:40.134Z,100567.84
2023-04-27T09:11:13.653Z,100556.88
2023-04-27T09:12:55.903Z,100551.00
2023-04-27T09:14:27.772Z,100557.56
2023-04-27T09:15:59.838Z,100552.84
2023-04-27T09:17:31.776Z,100552.69
2023-04-27T09:19:03.598Z,100557.97
2023-04-27T09:20:43.111Z,100551.13
2023-04-27T09:22:15.748Z,100557.66
2023-04-27T09:23:47.530Z,100556.16
2023-04-27T09:25:27.936Z,100546.34
2023-04-27T09:27:01.100Z,100547.22
2023-04-27T09:28:33.008Z,100548.00
2023-04-27T09:30:15.043Z,100545.44
2023-04-27T09:31:46.942Z,100540.31
2023-04-27T09:33:24.129Z,100535.47
2023-04-27T09:34:56.051Z,100536.78
2023-04-27T09:36:27.910Z,100535.41
2023-04-27T09:38:01.090Z,100532.13
2023-04-27T09:39:33.040Z,100538.69
2023-04-27T09:41:04.932Z,100538.28
2023-04-27T09:42:37.021Z,100532.03
2023-04-27T09:44:08.907Z,100532.91
2023-04-27T09:45:41.330Z,100532.94
2023-04-27T09:47:14.036Z,100534.78
2023-04-27T09:48:46.028Z,100536.66
2023-04-27T09:50:18.209Z,100541.09
2023-04-27T09:51:50.081Z,100534.72
2023-04-27T09:53:31.160Z,100535.28
2023-04-27T09:55:05.130Z,100536.41
2023-04-27T09:57:01.774Z,100537.84
2023-04-27T09:58:51.661Z,100537.28
2023-04-27T10:00:32.448Z,100520.88
2023-04-27T10:02:20.901Z,100523.44
2023-04-27T10:04:13.555Z,100525.00
2023-04-27T10:06:22.242Z,100520.16
2023-04-27T10:07:57.005Z,100516.13
2023-04-27T10:09:36.386Z,100520.25
2023-04-27T10:11:19.453Z,100526.25
2023-04-27T10:13:01.037Z,100516.34
2023-04-27T10:14:32.864Z,100512.88
2023-04-27T10:16:17.612Z,100519.75
2023-04-27T10:17:51.382Z,100520.22
2023-04-27T10:19:24.845Z,100523.16
2023-04-27T10:20:57.470Z,100524.47
2023-04-27T10:22:50.331Z,100528.28
2023-04-27T10:24:41.657Z,100521.53
2023-04-27T10:26:13.488Z,100524.25
2023-04-27T10:27:50.325Z,100519.72
2023-04-27T10:29:22.111Z,100531.69
2023-04-27T10:30:54.013Z,100525.75
2023-04-27T10:32:26.700Z,100531.28
2023-04-27T10:34:11.916Z,100531.38
2023-04-27T10:35:54.892Z,100525.41
2023-04-27T10:37:39.187Z,100531.22
2023-04-27T10:39:47.797Z,100530.38
2023-04-27T10:41:21.013Z,100533.97
2023-04-27T10:42:52.817Z,100535.28
2023-04-27T10:44:31.847Z,100532.00
2023-04-27T10:46:14.971Z,100519.88
2023-04-27T10:47:47.239Z,100521.44
2023-04-27T10:49:19.598Z,100525.00
2023-04-27T10:50:52.293Z,100522.16
2023-04-27T10:52:24.154Z,100524.59
2023-04-27T10:53:56.006Z,100523.25
2023-04-27T10:55:27.977Z,100521.09
2023-04-27T10:57:07.538Z,100510.09
2023-04-27T11:00:16.518Z,100518.19
2023-04-27T11:01:50.025Z,100524.31
2023-04-27T11:03:24.431Z,100524.31
2023-04-27T11:04:56.829Z,100520.31
2023-04-27T11:06:30.537Z,100516.09
2023-04-27T11:08:12.601Z,100515.09
2023-04-27T11:09:44.599Z,100510.44
2023-04-27T11:11:18.305Z,100515.88
2023-04-27T11:12:50.312Z,100513.03
2023-04-27T11:14:22.443Z,100523.84
2023-04-27T11:15:57.665Z,100519.38
2023-04-27T11:17:30.527Z,100518.94
2023-04-27T11:19:06.977Z,100517.47
2023-04-27T11:20:38.805Z,100520.44
2023-04-27T11:22:10.674Z,100511.72
2023-04-27T11:23:43.028Z,100520.41
2023-04-27T11:25:14.930Z,100512.81
2023-04-27T11:26:52.768Z,100517.97
2023-04-27T11:28:24.710Z,100510.66
2023-04-27T11:29:56.497Z,100514.78
2023-04-27T11:31:38.404Z,100517.19
2023-04-27T11:33:10.387Z,100519.91
2023-04-27T11:34:49.839Z,100513.75
2023-04-27T11:36:23.814Z,100518.22
2023-04-27T11:37:59.645Z,100528.06
2023-04-27T11:39:39.137Z,100528.22
2023-04-27T11:41:11.217Z,100520.75
2023-04-27T11:42:47.144Z,100520.88
2023-04-27T11:44:18.971Z,100520.09
2023-04-27T11:45:50.815Z,100528.06
2023-04-27T11:47:24.257Z,100531.31
2023-04-27T11:49:02.090Z,100527.88
2023-04-27T11:50:34.091Z,100527.19
2023-04-27T11:52:05.981Z,100522.22
2023-04-27T11:53:39.931Z,100527.13
2023-04-27T11:55:16.490Z,100526.56
2023-04-27T11:56:48.346Z,100535.91
2023-04-27T11:58:21.394Z,100533.94
2023-04-27T11:59:53.819Z,100529.41
2023-04-27T12:01:36.876Z,100519.38
2023-04-27T12:03:10.412Z,100534.22
2023-04-27T12:04:43.005Z,100540.50
2023-04-27T12:06:31.418Z,100532.13
2023-04-27T12:08:04.443Z,100522.22
2023-04-27T12:09:36.359Z,100525.13
2023-04-27T12:11:08.183Z,100528.34
2023-04-27T12:12:40.149Z,100540.38
2023-04-27T12:14:12.407Z,100531.84
2023-04-27T12:15:44.338Z,100536.75
2023-04-27T12:17:16.308Z,100544.69
2023-04-27T12:18:51.239Z,100542.59
2023-04-27T12:20:23.155Z,100540.31
2023-04-27T12:21:55.628Z,100543.50
2023-04-27T12:23:27.427Z,100543.50
2023-04-27T12:24:59.254Z,100534.50
2023-04-27T12:26:31.118Z,100547.78
2023-04-27T12:28:02.922Z,100539.47
2023-04-27T12:29:34.719Z,100538.19
2023-04-27T12:31:06.944Z,100540.59
2023-04-27T12:32:38.824Z,100534.81
2023-04-27T12:34:10.683Z,100539.97
2023-04-27T12:35:42.499Z,100534.19
2023-04-27T12:37:14.297Z,100534.03
2023-04-27T12:38:46.615Z,100538.44
2023-04-27T12:40:18.607Z,100543.34
2023-04-27T12:41:50.674Z,100539.09
2023-04-27T12:43:22.464Z,100538.84
2023-04-27T12:44:54.324Z,100544.22
2023-04-27T12:46:26.224Z,100545.00
2023-04-27T12:48:03.856Z,100547.63
2023-04-27T12:49:36.662Z,100546.56
2023-04-27T12:51:09.106Z,100537.63
2023-04-27T12:52:40.907Z,100539.09
2023-04-27T12:54:13.231Z,100544.84
2023-04-27T12:55:45.204Z,100540.97
2023-04-27T12:57:16.998Z,100530.94
2023-04-27T12:58:48.951Z,100530.44
2023-04-27T13:00:20.883Z,100530.00
2023-04-27T13:01:53.004Z,100532.78
2023-04-27T13:03:25.091Z,100533.00
2023-04-27T13:04:57.096Z,100536.66
2023-04-27T13:06:29.667Z,100532.00
2023-04-27T13:08:01.502Z,100531.09
2023-04-27T13:09:33.393Z,100532.47
2023-04-27T13:11:05.521Z,100520.28
2023-04-27T13:12:37.350Z,100530.13
2023-04-27T13:14:12.766Z,100527.56
2023-04-27T13:15:45.044Z,100531.31
2023-04-27T13:17:17.066Z,100520.72
2023-04-27T13:18:50.753Z,100527.97
2023-04-27T13:20:22.541Z,100527.56
2023-04-27T13:21:54.422Z,100534.66
2023-04-27T13:23:30.129Z,100535.97
2023-04-27T13:25:01.945Z,100535.59
2023-04-27T13:26:35.084Z,100535.91
2023-04-27T13:28:07.686Z,100534.53
2023-04-27T13:29:39.491Z,100530.25
2023-04-27T13:31:11.437Z,100534.28
2023-04-27T13:32:43.298Z,100528.84
2023-04-27T13:34:15.460Z,100532.13
2023-04-27T13:35:47.538Z,100530.06
2023-04-27T13:37:19.330Z,100524.81
2023-04-27T13:38:51.567Z,100520.22
2023-04-27T13:40:23.364Z,100526.66
2023-04-27T13:41:55.176Z,100516.94
2023-04-27T13:43:27.351Z,100517.50
2023-04-27T13:44:59.196Z,100518.50
2023-04-27T13:46:31.022Z,100521.53
2023-04-27T13:48:02.949Z,100517.09
2023-04-27T13:49:34.859Z,100517.09
2023-04-27T13:51:06.929Z,100519.50
2023-04-27T13:52:39.818Z,100509.34
2023-04-27T13:54:11.850Z,100507.00
2023-04-27T13:55:44.894Z,100509.25
2023-04-27T13:57:16.708Z,100513.22
2023-04-27T13:58:48.604Z,100508.13
2023-04-27T14:00:20.754Z,100503.94
2023-04-27T14:01:53.390Z,100500.94
2023-04-27T14:03:25.353Z,100503.03
2023-04-27T14:04:57.659Z,100503.25
2023-04-27T14:06:29.515Z,100501.44
2023-04-27T14:08:01.449Z,100507.09
2023-04-27T14:09:33.258Z,100504.09
2023-04-27T14:11:06.736Z,100497.50
2023-04-27T14:12:38.646Z,100510.69
2023-04-27T14:14:10.535Z,100507.69
2023-04-27T14:15:42.419Z,100503.00
2023-04-27T14:17:14.220Z,100498.09
2023-04-27T14:18:46.158Z,100496.94
2023-04-27T14:20:18.239Z,100484.03
2023-04-27T14:21:50.246Z,100489.13
2023-04-27T14:23:22.486Z,100485.59
2023-04-27T14:24:54.306Z,100488.66
2023-04-27T14:26:26.292Z,100496.00
2023-04-27T14:27:59.209Z,100482.19
2023-04-27T14:29:31.451Z,100481.72
2023-04-27T14:31:03.260Z,100486.84
2023-04-27T14:32:36.458Z,100493.16
2023-04-27T14:34:09.109Z,100481.22
2023-04-27T14:35:40.913Z,100485.81
2023-04-27T14:37:13.237Z,100487.53
2023-04-27T14:38:45.184Z,100480.53
2023-04-27T14:40:17.226Z,100483.25
2023-04-27T14:41:49.027Z,100475.75
2023-04-27T14:43:21.007Z,100481.72
2023-04-27T14:44:52.901Z,100479.88
2023-04-27T14:46:24.843Z,100483.47
2023-04-27T14:47:56.737Z,100483.94
2023-04-27T14:49:28.574Z,100479.84
2023-04-27T14:51:00.456Z,100489.53
2023-04-27T14:52:32.621Z,100487.66
2023-04-27T14:54:04.628Z,100479.97
2023-04-27T14:55:36.863Z,100487.47
2023-04-27T14:57:08.788Z,100477.78
2023-04-27T14:58:41.339Z,100489.56
2023-04-27T15:00:14.794Z,100489.22
2023-04-27T15:01:46.651Z,100487.72
2023-04-27T15:03:18.639Z,100495.03
2023-04-27T15:04:50.683Z,100483.78
2023-04-27T15:06:24.195Z,100486.66
2023-04-27T15:07:56.181Z,100487.53
2023-04-27T15:09:27.969Z,100489.06
2023-04-27T15:11:00.199Z,100485.31
2023-04-27T15:12:32.050Z,100485.63
2023-04-27T15:14:03.862Z,100482.06
2023-04-27T15:15:35.866Z,100480.03
2023-04-27T15:17:08.082Z,100471.00
2023-04-27T15:18:39.916Z,100486.53
2023-04-27T15:20:14.083Z,100479.34
2023-04-27T15:21:46.034Z,100482.41
2023-04-27T15:23:18.497Z,100484.78
2023-04-27T15:24:50.346Z,100482.72
2023-04-27T15:26:22.218Z,100475.53
2023-04-27T15:27:54.036Z,100470.06
2023-04-27T15:29:26.270Z,100479.78
2023-04-27T15:30:58.090Z,100486.03
2023-04-27T15:32:31.208Z,100477.34
2023-04-27T15:34:03.032Z,100478.72
2023-04-27T15:35:34.980Z,100482.63
2023-04-27T15:37:07.061Z,100481.25
2023-04-27T15:38:38.870Z,100478.84
2023-04-27T15:40:11.196Z,100480.22
2023-04-27T15:41:42.998Z,100480.69
2023-04-27T15:43:15.251Z,100482.91
2023-04-27T15:44:47.298Z,100479.81
2023-04-27T15:46:19.753Z,100486.41
2023-04-27T15:47:51.720Z,100476.69
2023-04-27T15:49:23.540Z,100478.56
2023-04-27T15:50:55.303Z,100476.19
2023-04-27T15:52:27.376Z,100472.94
2023-04-27T15:53:59.223Z,100461.84
2023-04-27T15:55:31.145Z,100466.75
2023-04-27T15:57:04.158Z,100466.56
2023-04-27T15:58:36.100Z,100458.34
2023-04-27T16:00:12.105Z,100467.16
2023-04-27T16:01:44.005Z,100458.78
2023-04-27T16:03:15.958Z,100462.00
2023-04-27T16:04:49.478Z,100460.63
2023-04-27T16:06:21.632Z,100448.50
2023-04-27T16:07:53.451Z,100460.88
2023-04-27T16:09:25.754Z,100455.06
2023-04-27T16:10:57.576Z,100444.94
2023-04-27T16:12:29.957Z,100442.19
2023-04-27T16:14:01.933Z,100451.13
2023-04-27T16:15:33.729Z,100443.75
2023-04-27T16:17:05.629Z,100443.53
2023-04-27T16:18:38.883Z,100436.31
2023-04-27T16:20:10.903Z,100437.97
2023-04-27T16:21:42.758Z,100439.59
2023-04-27T16:23:15.264Z,100436.34
2023-04-27T16:24:47.070Z,100437.66
2023-04-27T16:26:19.165Z,100442.41
2023-04-27T16:27:51.235Z,100435.56
2023-04-27T16:29:23.022Z,100435.91
2023-04-27T16:30:54.881Z,100439.59
2023-04-27T16:32:26.990Z,100445.34
2023-04-27T16:33:58.809Z,100433.78
2023-04-27T16:35:30.598Z,100435.97
2023-04-27T16:37:02.407Z,100437.41
2023-04-27T16:38:34.468Z,100437.72
2023-04-27T16:40:08.500Z,100438.31
2023-04-27T16:41:40.383Z,100428.06
2023-04-27T16:43:12.216Z,100435.13
2023-04-27T16:44:44.116Z,100435.00
2023-04-27T16:46:17.292Z,100433.25
2023-04-27T16:47:49.177Z,100434.28
2023-04-27T16:49:21.071Z,100431.59
2023-04-27T16:50:54.267Z,100430.25
2023-04-27T16:52:27.109Z,100435.13
2023-04-27T16:53:58.904Z,100436.31
2023-04-27T16:55:31.496Z,100437.66
2023-04-27T16:57:04.412Z,100438.13
2023-04-27T16:58:36.434Z,100435.00
2023-04-27T17:00:12.280Z,100438.00
2023-04-27T17:01:44.119Z,100442.00
2023-04-27T17:03:16.330Z,100445.09
2023-04-27T17:04:48.552Z,100443.53
2023-04-27T17:06:20.469Z,100447.38
2023-04-27T17:07:52.590Z,100447.63
2023-04-27T17:09:24.354Z,100450.44
2023-04-27T17:10:56.247Z,100453.44
2023-04-27T17:12:28.095Z,100453.41
2023-04-27T17:13:59.990Z,100453.38
2023-04-27T17:15:32.465Z,100450.69
2023-04-27T17:17:05.113Z,100447.97
2023-04-27T17:18:36.920Z,100443.50
2023-04-27T17:20:09.801Z,100455.13
2023-04-27T17:21:41.858Z,100451.63
2023-04-27T17:23:13.666Z,100452.44
2023-04-27T17:24:45.657Z,100450.53
2023-04-27T17:26:20.130Z,100459.53
2023-04-27T17:27:51.959Z,100456.75
2023-04-27T17:29:23.833Z,100460.28
2023-04-27T17:30:56.573Z,100463.81
2023-04-27T17:32:28.466Z,100463.75
2023-04-27T17:34:02.580Z,100465.50
2023-04-27T17:35:34.653Z,100463.69
2023-04-27T17:37:06.480Z,100462.59
2023-04-27T17:38:38.276Z,100459.81
2023-04-27T17:40:11.219Z,100465.84
2023-04-27T17:41:43.008Z,100463.03
2023-04-27T17:43:14.806Z,100460.22
2023-04-27T17:44:46.708Z,100465.25
2023-04-27T17:46:18.636Z,100459.84
2023-04-27T17:47:51.004Z,100458.78